METAR Data
IDs: Format: Raw Decoded Include TAF

Data at: 0402 UTC 27 Jan 2021

KPGV 270355Z AUTO 00000KT 1SM BR OVC002 11/11 A2994 RMK AO2
KPGV 270335Z AUTO 00000KT 1 3/4SM BR OVC004 11/11 A2994 RMK AO2
KPGV 270315Z AUTO 00000KT 3SM BR OVC004 11/11 A2993 RMK AO2
KPGV 270255Z AUTO 00000KT 4SM BR OVC006 11/11 A2993 RMK AO2
KPGV 270235Z AUTO 00000KT 4SM BR OVC006 11/11 A2992 RMK AO2
KPGV 270215Z AUTO 00000KT 4SM BR BKN004 OVC009 11/11 A2992 RMK AO2
KPGV 270155Z AUTO 00000KT 3SM BR OVC004 11/10 A2992 RMK AO2
KPGV 270135Z AUTO 00000KT 4SM BR OVC004 11/11 A2992 RMK AO2
KPGV 270115Z AUTO 00000KT 5SM BR OVC004 11/11 A2991 RMK AO2
KPGV 270055Z AUTO 00000KT 4SM BR OVC006 10/10 A2990 RMK AO2
KPGV 270035Z AUTO 00000KT 5SM BR OVC006 10/10 A2990 RMK AO2
KPGV 270015Z AUTO 00000KT 5SM BR OVC008 10/10 A2990 RMK AO2
KPGV 262355Z AUTO 00000KT 5SM BR SCT003 OVC008 10/10 A2989 RMK AO2
KPGV 262335Z AUTO 20003KT 2 1/2SM BR SCT003 OVC010 10/10 A2988 RMK AO2
KPGV 262315Z AUTO 00000KT 3SM BR BKN003 OVC006 10/10 A2989 RMK AO2
KPGV 262255Z AUTO 00000KT 1 1/4SM BR OVC003 10/10 A2990 RMK AO2
KPGV 262215Z AUTO 00000KT 1 3/4SM BR OVC003 10/10 A2990 RMK AO2
KPGV 262155Z AUTO 00000KT 4SM BR OVC003 10/10 A2990 RMK AO2
KPGV 262135Z AUTO 00000KT 4SM BR OVC003 10/10 A2988 RMK AO2
KPGV 262115Z AUTO 00000KT 2SM BR OVC003 10/09 A2988 RMK AO2
KPGV 262055Z AUTO 27003KT 2SM BR OVC003 10/09 A2988 RMK AO2
KPGV 262035Z AUTO 00000KT 5SM BR OVC003 10/09 A2988 RMK AO2
KPGV 262015Z AUTO 00000KT 10SM OVC003 09/08 A2988 RMK AO2
KPGV 261955Z AUTO 00000KT 7SM OVC003 09/08 A2988 RMK AO2
KPGV 261935Z AUTO 00000KT 5SM BR OVC003 09/08 A2988 RMK AO2
KPGV 261915Z AUTO 30003KT 5SM BR OVC003 09/08 A2988 RMK AO2
KPGV 261855Z AUTO 29003KT 2 1/2SM BR OVC003 08/08 A2988 RMK AO2
KPGV 261835Z AUTO 33003KT 1 1/2SM BR OVC003 08/08 A2989 RMK AO2
KPGV 261815Z AUTO 30004KT 5SM BR OVC003 08/08 A2989 RMK AO2
KPGV 261755Z AUTO 31004KT 10SM OVC003 08/08 A2990 RMK AO2
KPGV 261735Z AUTO 00000KT 10SM OVC003 08/08 A2988 RMK AO2
KPGV 261715Z AUTO 00000KT 10SM OVC003 08/07 A2988 RMK AO2
KPGV 261655Z AUTO 00000KT 10SM OVC003 08/07 A2988 RMK AO2
KPGV 261635Z AUTO 00000KT 5SM BR OVC003 08/07 A2988 RMK AO2
KPGV 261615Z AUTO 02003KT 5SM BR OVC003 07/07 A2991 RMK AO2
KPGV 261555Z AUTO 00000KT 3SM -RA OVC003 07/07 A2992 RMK AO2
KPGV 261535Z AUTO 00000KT 1 1/4SM -RA BKN003 OVC006 07/07 A2994 RMK AO2
KPGV 261515Z AUTO 00000KT 2SM -DZ OVC006 07/07 A2995 RMK AO2
KPGV 261455Z AUTO 34003KT 5SM -RA OVC004 07/07 A2994 RMK AO2
KPGV 261435Z AUTO 00000KT 10SM -RA OVC004 07/07 A2993 RMK AO2
KPGV 261415Z AUTO 00000KT 10SM OVC006 07/07 A2991 RMK AO2
KPGV 261355Z AUTO 00000KT 10SM SCT003 SCT007 OVC013 07/07 A2990 RMK AO2
KPGV 261335Z AUTO 18003KT 10SM OVC015 07/06 A2990 RMK AO2
KPGV 261315Z AUTO 18003KT 10SM SCT005 OVC017 07/06 A2990 RMK AO2
KPGV 261255Z AUTO 00000KT 5SM -RA OVC005 06/06 A2991 RMK AO2
KPGV 261235Z AUTO 01004KT 10SM RA OVC005 06/06 A2991 RMK AO2
KPGV 261215Z AUTO 00000KT 7SM -RA OVC005 06/06 A2993 RMK AO2
KPGV 261155Z AUTO 14003KT 10SM -RA OVC003 06/06 A2991 RMK AO2
KPGV 261135Z AUTO 00000KT 10SM RA OVC005 06/06 A2990 RMK AO2
KPGV 261115Z AUTO 13003KT 5SM RA OVC005 06/06 A2991 RMK AO2
KPGV 261055Z AUTO 00000KT 5SM RA OVC003 06/06 A2994 RMK AO2
KPGV 261035Z AUTO 04003KT 7SM RA OVC003 06/06 A2993 RMK AO2
KPGV 261015Z AUTO 01003KT 7SM -RA OVC003 06/06 A2994 RMK AO2
KPGV 260955Z AUTO 05003KT 5SM -DZ OVC003 06/06 A2993 RMK AO2
KPGV 260935Z AUTO 05003KT 4SM RA OVC003 06/06 A2993 RMK AO2
KPGV 260915Z AUTO 02007KT 2 1/2SM -DZ OVC003 06/06 A2993 RMK AO2
KPGV 260855Z AUTO 01004KT 2 1/2SM BR OVC003 06/06 A2993 RMK AO2
KPGV 260835Z AUTO 03005KT 4SM BR OVC003 06/06 A2993 RMK AO2
KPGV 260815Z AUTO 09003KT 2 1/2SM BR OVC003 06/05 A2991 RMK AO2
KPGV 260755Z AUTO 00000KT 2 1/2SM BR OVC003 06/05 A2993 RMK AO2
KPGV 260735Z AUTO 05004KT 3SM BR OVC003 06/05 A2994 RMK AO2
KPGV 260715Z AUTO 00000KT 3SM BR OVC003 06/05 A2993 RMK AO2
KPGV 260655Z AUTO 00000KT 4SM BR OVC003 06/05 A2994 RMK AO2
KPGV 260635Z AUTO 00000KT 10SM OVC003 06/05 A2995 RMK AO2
KPGV 260615Z AUTO 00000KT 10SM OVC003 06/05 A2994 RMK AO2
KPGV 260555Z AUTO 00000KT 10SM OVC003 06/05 A2993 RMK AO2
KPGV 260535Z AUTO 12003KT 7SM OVC003 06/05 A2992 RMK AO2
KPGV 260515Z AUTO 10003KT 5SM BR OVC003 06/05 A2994 RMK AO2
KPGV 260455Z AUTO 07005KT 5SM BR OVC003 06/05 A2995 RMK AO2
KPGV 260435Z AUTO 07005KT 5SM BR OVC003 06/06 A2996 RMK AO2
KPGV 260255Z AUTO 03004KT 3SM -RA OVC003 07/06 A2998 RMK AO2
KPGV 260235Z AUTO 01007KT 3SM -RA OVC003 07/06 A2999 RMK AO2
KPGV 260215Z AUTO 00000KT 3SM BR OVC003 07/06 A2996 RMK AO2
KPGV 260155Z AUTO 00000KT 3SM -DZ BKN003 OVC009 07/06 A2996 RMK AO2
KPGV 260135Z AUTO 00000KT 2 1/2SM -RA OVC003 07/06 A2997 RMK AO2
KPGV 260115Z AUTO 00000KT 3SM BR OVC003 07/06 A2997 RMK AO2
KPGV 260055Z AUTO 00000KT 3SM -RA OVC003 07/06 A2998 RMK AO2
KPGV 260035Z AUTO 09004KT 2 1/2SM -DZ OVC003 07/07 A2998 RMK AO2
KPGV 260015Z AUTO 04003KT 4SM BR OVC003 07/06 A3000 RMK AO2
KPGV 252355Z AUTO 00000KT 10SM OVC005 07/06 A3000 RMK AO2
KPGV 252335Z AUTO 09004KT 10SM OVC005 07/06 A2999 RMK AO2
KPGV 252315Z AUTO 12005KT 7SM OVC005 07/06 A2997 RMK AO2
KPGV 252255Z AUTO 13004KT 10SM OVC005 07/06 A3000 RMK AO2
KPGV 252235Z AUTO 12004KT 10SM OVC005 07/06 A3001 RMK AO2
KPGV 252215Z AUTO 11006KT 10SM OVC005 07/06 A3001 RMK AO2
KPGV 252155Z AUTO 09003KT 10SM OVC005 07/06 A3001 RMK AO2
KPGV 252135Z AUTO 13006KT 3SM BR OVC005 07/06 A3000 RMK AO2
KPGV 252115Z AUTO 13004KT 5SM BR OVC005 07/06 A3001 RMK AO2
KPGV 252055Z AUTO 13005KT 5SM -DZ OVC005 07/06 A3001 RMK AO2
KPGV 252035Z AUTO 14004KT 5SM DZ OVC005 07/07 A3002 RMK AO2
KPGV 252015Z AUTO 12004KT 5SM RA OVC005 07/06 A3002 RMK AO2
KPGV 251955Z AUTO 12005KT 5SM -DZ OVC005 07/07 A3002 RMK AO2
KPGV 251935Z AUTO 11005KT 5SM -RA OVC005 07/07 A3003 RMK AO2
KPGV 251915Z AUTO 12006KT 5SM -DZ OVC005 07/06 A3003 RMK AO2
KPGV 251855Z AUTO 12005KT 4SM -RA OVC003 07/06 A3003 RMK AO2
KPGV 251835Z AUTO 09005KT 7SM -RA OVC003 07/06 A3004 RMK AO2
KPGV 251815Z AUTO 11003KT 10SM DZ OVC003 07/06 A3006 RMK AO2
KPGV 251755Z AUTO 10003KT 10SM RA OVC003 07/06 A3006 RMK AO2
KPGV 251735Z AUTO 00000KT 10SM OVC003 07/06 A3008 RMK AO2
KPGV 251715Z AUTO 16004KT 10SM -DZ OVC003 07/06 A3008 RMK AO2
KPGV 251655Z AUTO 13003KT 10SM -RA OVC003 06/06 A3010 RMK AO2
KPGV 251635Z AUTO 13003KT 7SM -RA OVC003 06/06 A3011 RMK AO2
KPGV 251615Z AUTO 11004KT 10SM -DZ OVC003 06/06 A3012 RMK AO2